createdAt,value
2019-04-14T00:00:55.664Z,34.37
2019-04-14T00:03:52.953Z,33.33
2019-04-14T00:06:22.294Z,35.83
2019-04-14T00:08:50.265Z,33.43
2019-04-14T00:11:19.040Z,36.43
2019-04-14T00:13:47.810Z,36.57
2019-04-14T00:16:16.377Z,33.10
2019-04-14T00:18:44.764Z,33.03
2019-04-14T00:21:12.946Z,34.47
2019-04-14T00:23:41.259Z,34.60
2019-04-14T00:26:35.585Z,33.93
2019-04-14T00:29:04.613Z,32.07
2019-04-14T00:31:32.941Z,35.10
2019-04-14T00:34:35.359Z,34.90
2019-04-14T00:37:27.275Z,33.77
2019-04-14T00:39:59.746Z,35.03
2019-04-14T00:42:34.195Z,34.80
2019-04-14T00:45:32.107Z,34.57
2019-04-14T00:48:03.355Z,31.13
2019-04-14T00:50:25.427Z,36.27
2019-04-14T00:52:54.426Z,35.73
2019-04-14T00:55:22.579Z,36.83
2019-04-14T00:57:50.879Z,34.37
2019-04-14T01:00:19.308Z,36.47
2019-04-14T01:02:49.303Z,34.17
2019-04-14T01:05:17.458Z,35.47
2019-04-14T01:07:45.567Z,37.77
2019-04-14T01:10:13.264Z,35.00
2019-04-14T01:12:41.039Z,37.17
2019-04-14T01:15:09.272Z,32.80
2019-04-14T01:17:37.364Z,35.43
2019-04-14T01:20:05.833Z,35.10
2019-04-14T01:22:33.596Z,33.77
2019-04-14T01:25:02.316Z,34.77
2019-04-14T01:27:30.042Z,35.40
2019-04-14T01:29:58.172Z,33.73
2019-04-14T01:32:26.151Z,34.87
2019-04-14T01:34:54.466Z,36.97
2019-04-14T01:37:23.205Z,33.47
2019-04-14T01:39:50.847Z,34.07
2019-04-14T01:42:18.470Z,36.13
2019-04-14T01:44:46.125Z,37.03
2019-04-14T01:47:13.808Z,35.57
2019-04-14T01:49:41.883Z,35.70
2019-04-14T01:52:41.196Z,34.80
2019-04-14T01:55:41.432Z,37.23
2019-04-14T01:58:14.879Z,35.97
2019-04-14T02:01:14.835Z,34.33
2019-04-14T02:03:43.350Z,34.47
2019-04-14T02:06:11.439Z,32.87
2019-04-14T02:08:39.384Z,34.33
2019-04-14T02:11:07.430Z,32.40
2019-04-14T02:13:35.443Z,35.30
2019-04-14T02:16:15.006Z,33.47
2019-04-14T02:18:33.985Z,35.67
2019-04-14T02:21:02.140Z,32.63
2019-04-14T02:23:30.206Z,31.20
2019-04-14T02:25:58.110Z,34.00
2019-04-14T02:28:26.469Z,34.40
2019-04-14T02:31:08.266Z,31.23
2019-04-14T02:34:02.306Z,31.23
2019-04-14T02:38:57.422Z,32.83
2019-04-14T02:43:51.094Z,31.60
2019-04-14T02:46:32.221Z,31.17
2019-04-14T02:48:50.833Z,31.37
2019-04-14T02:51:21.153Z,31.93
2019-04-14T02:53:49.674Z,32.03
2019-04-14T02:56:28.076Z,34.77
2019-04-14T02:58:59.461Z,30.97
2019-04-14T03:03:43.034Z,33.77
2019-04-14T03:06:12.089Z,32.17
2019-04-14T03:13:45.570Z,32.20
2019-04-14T03:16:24.066Z,33.13
2019-04-14T03:18:50.613Z,33.23
2019-04-14T03:21:45.189Z,34.93
2019-04-14T03:24:27.478Z,32.80
2019-04-14T03:27:00.284Z,36.20
2019-04-14T03:29:43.306Z,35.57
2019-04-14T03:32:14.282Z,35.10
2019-04-14T03:34:44.252Z,35.47
2019-04-14T03:37:30.897Z,34.43
2019-04-14T03:39:38.583Z,33.17
2019-04-14T03:42:00.683Z,34.60
2019-04-14T03:44:34.636Z,36.00
2019-04-14T03:47:08.772Z,36.63
2019-04-14T03:49:31.649Z,34.40
2019-04-14T03:52:15.340Z,36.17
2019-04-14T03:54:20.149Z,36.60
2019-04-14T03:56:51.401Z,35.93
2019-04-14T03:59:19.734Z,36.90
2019-04-14T04:01:47.919Z,34.70
2019-04-14T04:04:16.161Z,36.77
2019-04-14T04:06:44.261Z,35.70
2019-04-14T04:09:12.592Z,34.70
2019-04-14T04:11:41.199Z,36.77
2019-04-14T04:14:09.647Z,38.00
2019-04-14T04:16:57.293Z,37.87
2019-04-14T04:19:35.890Z,36.13
2019-04-14T04:22:23.661Z,35.77
2019-04-14T04:24:59.110Z,37.30
2019-04-14T04:27:44.044Z,38.40
2019-04-14T04:30:25.402Z,38.50
2019-04-14T04:33:05.229Z,35.07
2019-04-14T04:35:37.049Z,39.77
2019-04-14T04:38:22.717Z,37.77
2019-04-14T04:40:50.953Z,34.53
2019-04-14T04:43:19.028Z,36.20
2019-04-14T04:45:47.390Z,39.07
2019-04-14T04:48:15.249Z,37.23
2019-04-14T04:50:43.171Z,38.73
2019-04-14T04:53:11.518Z,39.37
2019-04-14T04:55:39.522Z,39.97
2019-04-14T04:58:07.781Z,40.53
2019-04-14T05:00:35.561Z,39.37
2019-04-14T05:03:03.660Z,38.70
2019-04-14T05:06:23.784Z,35.57
2019-04-14T05:08:54.475Z,38.83
2019-04-14T05:11:29.656Z,38.30
2019-04-14T05:13:58.452Z,37.67
2019-04-14T05:16:26.145Z,38.40
2019-04-14T05:18:53.773Z,39.23
2019-04-14T05:21:21.504Z,41.50
2019-04-14T05:23:49.540Z,39.87
2019-04-14T05:26:17.813Z,37.73
2019-04-14T05:28:46.033Z,37.50
2019-04-14T05:31:14.325Z,41.80
2019-04-14T05:33:42.553Z,39.13
2019-04-14T05:36:10.711Z,40.77
2019-04-14T05:38:38.623Z,40.80
2019-04-14T05:41:06.983Z,40.70
2019-04-14T05:43:43.757Z,39.27
2019-04-14T05:46:05.492Z,41.30
2019-04-14T05:48:33.735Z,43.27
2019-04-14T05:51:02.019Z,42.30
2019-04-14T05:53:30.536Z,44.50
2019-04-14T05:55:59.288Z,44.37
2019-04-14T05:58:27.530Z,45.00
2019-04-14T06:00:55.798Z,44.07
2019-04-14T06:03:23.572Z,41.73
2019-04-14T06:05:51.337Z,41.20
2019-04-14T06:08:18.980Z,43.03
2019-04-14T06:10:46.641Z,42.70
2019-04-14T06:13:14.466Z,43.57
2019-04-14T06:15:42.121Z,43.70
2019-04-14T06:18:10.812Z,42.63
2019-04-14T06:20:38.511Z,45.57
2019-04-14T06:23:07.298Z,44.30
2019-04-14T06:25:36.348Z,44.37
2019-04-14T06:28:04.353Z,42.63
2019-04-14T06:30:44.704Z,44.67
2019-04-14T06:33:24.878Z,42.07
2019-04-14T06:36:21.905Z,45.87
2019-04-14T06:38:52.905Z,43.30
2019-04-14T06:41:20.869Z,44.10
2019-04-14T06:43:49.338Z,44.77
2019-04-14T06:46:17.133Z,45.27
2019-04-14T06:48:44.852Z,45.57
2019-04-14T06:51:12.561Z,45.97
2019-04-14T06:53:40.221Z,46.40
2019-04-14T06:56:07.905Z,43.23
2019-04-14T06:58:35.573Z,47.93
2019-04-14T07:01:03.219Z,43.97
2019-04-14T07:03:30.948Z,45.00
2019-04-14T07:06:00.125Z,44.97
2019-04-14T07:08:29.940Z,43.77
2019-04-14T07:10:57.602Z,42.93
2019-04-14T07:13:25.284Z,45.43
2019-04-14T07:15:52.950Z,45.90
2019-04-14T07:18:20.607Z,45.20
2019-04-14T07:20:48.343Z,41.23
2019-04-14T07:23:16.123Z,43.27
2019-04-14T07:25:43.761Z,42.73
2019-04-14T07:28:11.433Z,45.67
2019-04-14T07:31:07.428Z,42.83
2019-04-14T07:33:54.614Z,43.50
2019-04-14T07:36:41.833Z,41.03
2019-04-14T07:39:27.774Z,43.37
2019-04-14T07:42:02.576Z,42.53
2019-04-14T07:45:02.011Z,40.47
2019-04-14T07:47:49.668Z,41.50
2019-04-14T07:50:35.694Z,44.57
2019-04-14T07:53:22.836Z,44.07
2019-04-14T07:56:02.324Z,44.27
2019-04-14T07:58:49.128Z,43.93
2019-04-14T08:01:21.248Z,42.93
2019-04-14T08:04:08.676Z,42.87
2019-04-14T08:06:38.380Z,47.30
2019-04-14T08:09:06.487Z,46.63
2019-04-14T08:11:34.215Z,48.43
2019-04-14T08:14:01.938Z,64.00
2019-04-14T08:16:29.606Z,48.87
2019-04-14T08:18:57.279Z,58.13
2019-04-14T08:21:25.037Z,48.60
2019-04-14T08:23:53.721Z,46.57
2019-04-14T08:26:21.369Z,44.60
2019-04-14T08:28:48.997Z,41.37
2019-04-14T08:31:16.905Z,43.43
2019-04-14T08:33:44.624Z,42.80
2019-04-14T08:36:12.269Z,43.80
2019-04-14T08:38:41.844Z,47.33
2019-04-14T08:41:09.559Z,43.37
2019-04-14T08:43:42.649Z,45.40
2019-04-14T08:46:32.882Z,40.17
2019-04-14T08:49:11.346Z,44.90
2019-04-14T08:52:01.529Z,45.83
2019-04-14T08:55:06.897Z,42.20
2019-04-14T08:58:05.922Z,42.77
2019-04-14T09:00:43.456Z,42.93
2019-04-14T09:03:22.254Z,42.90
2019-04-14T09:06:03.759Z,42.93
2019-04-14T09:08:53.900Z,40.40
2019-04-14T09:11:27.837Z,42.10
2019-04-14T09:13:55.526Z,39.03
2019-04-14T09:16:23.235Z,36.07
2019-04-14T09:18:53.553Z,38.90
2019-04-14T09:21:20.510Z,41.20
2019-04-14T09:23:48.294Z,38.07
2019-04-14T09:26:16.215Z,39.63
2019-04-14T09:28:43.910Z,38.40
2019-04-14T09:31:11.624Z,35.43
2019-04-14T09:33:39.337Z,41.17
2019-04-14T09:36:07.022Z,34.90
2019-04-14T09:38:34.692Z,35.17
2019-04-14T09:41:02.450Z,36.23
2019-04-14T09:43:30.141Z,33.93
2019-04-14T09:45:57.785Z,37.07
2019-04-14T09:48:25.536Z,35.63
2019-04-14T09:51:04.136Z,38.07
2019-04-14T09:53:23.002Z,37.33
2019-04-14T09:55:50.647Z,40.70
2019-04-14T09:58:18.491Z,37.30
2019-04-14T10:00:46.329Z,33.70
2019-04-14T10:03:14.081Z,36.77
2019-04-14T10:05:41.766Z,36.33
2019-04-14T10:08:09.461Z,34.07
2019-04-14T10:10:37.225Z,35.77
2019-04-14T10:13:05.041Z,34.67
2019-04-14T10:15:33.825Z,34.10
2019-04-14T10:18:01.411Z,40.60
2019-04-14T10:20:30.140Z,34.93
2019-04-14T10:22:57.832Z,37.57
2019-04-14T10:25:25.552Z,33.83
2019-04-14T10:27:53.223Z,34.60
2019-04-14T10:30:20.883Z,32.33
2019-04-14T10:32:48.568Z,33.27
2019-04-14T10:35:16.281Z,31.70
2019-04-14T10:37:43.954Z,35.83
2019-04-14T10:40:11.645Z,34.37
2019-04-14T10:42:39.334Z,35.17
2019-04-14T10:45:07.018Z,35.63
2019-04-14T10:47:34.735Z,34.70
2019-04-14T10:50:02.413Z,35.33
2019-04-14T10:52:30.099Z,37.87
2019-04-14T10:54:57.798Z,33.40
2019-04-14T10:57:25.513Z,34.27
2019-04-14T10:59:53.173Z,34.70
2019-04-14T11:02:20.911Z,35.33
2019-04-14T11:04:48.561Z,33.13
2019-04-14T11:07:21.691Z,34.17
2019-04-14T11:09:49.378Z,33.10
2019-04-14T11:12:17.082Z,31.37
2019-04-14T11:14:44.756Z,30.00
2019-04-14T11:17:12.849Z,31.43
2019-04-14T11:19:40.540Z,35.90
2019-04-14T11:22:08.316Z,29.40
2019-04-14T11:24:36.076Z,34.80
2019-04-14T11:27:03.843Z,33.17
2019-04-14T11:29:31.474Z,30.80
2019-04-14T11:32:14.308Z,30.63
2019-04-14T11:34:46.842Z,31.90
2019-04-14T11:37:52.521Z,33.73
2019-04-14T11:40:22.737Z,31.47
2019-04-14T11:42:52.628Z,29.80
2019-04-14T11:45:21.006Z,33.73
2019-04-14T11:47:48.721Z,31.90
2019-04-14T11:50:16.509Z,30.63
2019-04-14T11:52:44.293Z,33.40
2019-04-14T11:55:12.045Z,30.93
2019-04-14T11:57:39.723Z,31.60
2019-04-14T12:00:25.637Z,31.07
2019-04-14T12:03:22.057Z,28.30
2019-04-14T12:06:06.513Z,30.20
2019-04-14T12:08:45.806Z,30.50
2019-04-14T12:11:13.504Z,32.63
2019-04-14T12:13:41.161Z,27.37
2019-04-14T12:16:08.828Z,29.23
2019-04-14T12:18:36.547Z,27.70
2019-04-14T12:21:04.264Z,30.20
2019-04-14T12:23:32.065Z,27.37
2019-04-14T12:26:05.449Z,26.97
2019-04-14T12:28:29.348Z,25.67
2019-04-14T12:30:57.593Z,27.27
2019-04-14T12:33:25.385Z,29.97
2019-04-14T12:35:53.145Z,26.63
2019-04-14T12:38:20.921Z,27.17
2019-04-14T12:40:49.378Z,28.83
2019-04-14T12:43:26.433Z,24.10
2019-04-14T12:46:12.321Z,27.20
2019-04-14T12:48:48.014Z,23.93
2019-04-14T12:51:20.578Z,26.33
2019-04-14T12:53:48.500Z,25.70
2019-04-14T12:56:19.222Z,24.00
2019-04-14T12:58:56.281Z,23.27
2019-04-14T13:01:25.607Z,23.63
2019-04-14T13:03:54.805Z,23.33
2019-04-14T13:06:22.490Z,24.07
2019-04-14T13:08:50.149Z,22.33
2019-04-14T13:11:17.853Z,23.20
2019-04-14T13:13:45.601Z,20.73
2019-04-14T13:16:13.555Z,22.23
2019-04-14T13:18:41.245Z,21.37
2019-04-14T13:21:09.186Z,21.57
2019-04-14T13:23:37.003Z,21.77
2019-04-14T13:26:04.682Z,19.53
2019-04-14T13:28:32.358Z,23.63
2019-04-14T13:31:00.069Z,20.47
2019-04-14T13:33:27.757Z,22.07
2019-04-14T13:35:55.443Z,18.67
2019-04-14T13:38:23.087Z,16.60
2019-04-14T13:40:50.769Z,19.73
2019-04-14T13:43:18.474Z,18.30
2019-04-14T13:45:46.136Z,17.20
2019-04-14T13:48:14.285Z,17.87
2019-04-14T13:50:42.043Z,18.10
2019-04-14T13:53:09.708Z,18.87
2019-04-14T13:55:37.489Z,16.90
2019-04-14T13:58:05.304Z,18.40
2019-04-14T14:00:33.064Z,22.93
2019-04-14T14:03:01.057Z,16.33
2019-04-14T14:05:28.853Z,18.07
2019-04-14T14:07:56.627Z,16.00
2019-04-14T14:10:24.287Z,18.30
2019-04-14T14:13:14.365Z,16.00
2019-04-14T14:15:59.949Z,18.77
2019-04-14T14:18:53.409Z,15.60
2019-04-14T14:21:29.939Z,15.63
2019-04-14T14:24:15.839Z,14.70
2019-04-14T14:26:44.149Z,18.07
2019-04-14T14:29:11.866Z,15.23
2019-04-14T14:31:39.659Z,15.27
2019-04-14T14:34:07.421Z,14.90
2019-04-14T14:36:35.122Z,14.17
2019-04-14T14:39:04.680Z,14.43
2019-04-14T14:41:33.752Z,17.20
2019-04-14T14:44:01.507Z,13.93
2019-04-14T14:46:48.041Z,18.33
2019-04-14T14:49:23.135Z,15.63
2019-04-14T14:51:53.664Z,17.83
2019-04-14T14:54:21.345Z,13.60
2019-04-14T14:56:50.008Z,18.87
2019-04-14T14:59:17.767Z,16.47
2019-04-14T15:01:45.537Z,15.40
2019-04-14T15:04:13.207Z,16.67
2019-04-14T15:06:40.923Z,15.20
2019-04-14T15:09:08.621Z,15.43
2019-04-14T15:11:36.333Z,14.47
2019-04-14T15:14:05.294Z,16.90
2019-04-14T15:16:32.969Z,15.37
2019-04-14T15:19:00.603Z,17.73
2019-04-14T15:21:28.376Z,14.43
2019-04-14T15:23:56.047Z,17.23
2019-04-14T15:26:23.723Z,14.70
2019-04-14T15:28:51.405Z,14.63
2019-04-14T15:31:20.240Z,18.07
2019-04-14T15:33:47.888Z,13.07
2019-04-14T15:36:15.630Z,16.43
2019-04-14T15:38:43.278Z,15.60
2019-04-14T15:41:11.037Z,17.40
2019-04-14T15:43:38.818Z,15.27
2019-04-14T15:46:06.558Z,15.03
2019-04-14T15:48:34.189Z,15.47
2019-04-14T15:51:01.967Z,14.93
2019-04-14T15:53:37.795Z,15.50
2019-04-14T15:55:59.492Z,17.13
2019-04-14T15:58:41.813Z,14.87
2019-04-14T16:01:38.162Z,13.53
2019-04-14T16:04:16.621Z,13.40
2019-04-14T16:06:59.157Z,12.73
2019-04-14T16:09:38.505Z,14.13
2019-04-14T16:12:25.072Z,13.83
2019-04-14T16:15:13.020Z,15.03
2019-04-14T16:18:10.668Z,16.33
2019-04-14T16:20:40.589Z,14.87
2019-04-14T16:23:11.085Z,16.23
2019-04-14T16:25:47.979Z,18.33
2019-04-14T16:28:21.302Z,17.87
2019-04-14T16:31:07.243Z,12.87
2019-04-14T16:33:53.801Z,12.87
2019-04-14T16:36:21.513Z,15.73
2019-04-14T16:38:49.226Z,14.90
2019-04-14T16:41:16.905Z,14.77
2019-04-14T16:43:44.607Z,14.00
2019-04-14T16:46:12.329Z,17.17
2019-04-14T16:48:40.191Z,15.73
2019-04-14T16:51:09.654Z,14.37
2019-04-14T16:53:39.789Z,17.00
2019-04-14T16:56:39.221Z,16.50
2019-04-14T16:59:12.781Z,14.03
2019-04-14T17:01:42.799Z,16.50
2019-04-14T17:04:10.708Z,15.17
2019-04-14T17:06:38.496Z,15.77
2019-04-14T17:09:07.157Z,13.63
2019-04-14T17:11:36.672Z,15.30
2019-04-14T17:14:12.684Z,15.20
2019-04-14T17:17:05.748Z,17.77
2019-04-14T17:19:40.774Z,15.67
2019-04-14T17:22:33.738Z,14.23
2019-04-14T17:25:26.131Z,13.23
2019-04-14T17:28:13.781Z,15.40
2019-04-14T17:31:07.084Z,16.70
2019-04-14T17:33:42.381Z,19.00
2019-04-14T17:36:41.844Z,21.87
2019-04-14T17:39:25.282Z,18.13
2019-04-14T17:42:09.373Z,19.87
2019-04-14T17:44:41.552Z,19.90
2019-04-14T17:47:36.184Z,22.03
2019-04-14T17:50:39.786Z,17.73
2019-04-14T17:53:01.409Z,20.50
2019-04-14T17:56:00.488Z,18.37
2019-04-14T17:58:35.908Z,18.00
2019-04-14T18:01:32.076Z,19.90
2019-04-14T18:04:34.302Z,18.00
2019-04-14T18:07:15.898Z,18.73
2019-04-14T18:10:01.463Z,16.43
2019-04-14T18:12:51.519Z,20.63
2019-04-14T18:15:41.346Z,17.63
2019-04-14T18:18:24.809Z,20.20
2019-04-14T18:20:55.719Z,17.93
2019-04-14T18:23:23.470Z,20.00
2019-04-14T18:25:51.165Z,17.53
2019-04-14T18:28:36.700Z,17.40
2019-04-14T18:31:22.292Z,17.20
2019-04-14T18:34:27.458Z,17.40
2019-04-14T18:37:23.798Z,15.67
2019-04-14T18:40:16.798Z,18.03
2019-04-14T18:43:06.868Z,17.50
2019-04-14T18:45:42.769Z,16.87
2019-04-14T18:48:15.033Z,15.43
2019-04-14T18:51:03.402Z,17.90
2019-04-14T18:53:42.321Z,16.63
2019-04-14T18:56:35.549Z,16.47
2019-04-14T18:59:21.612Z,16.67
2019-04-14T19:01:49.845Z,15.57
2019-04-14T19:04:17.639Z,15.93
2019-04-14T19:06:45.350Z,15.60
2019-04-14T19:09:13.358Z,16.93
2019-04-14T19:11:52.600Z,16.20
2019-04-14T19:14:24.229Z,16.47
2019-04-14T19:16:56.658Z,15.93
2019-04-14T19:19:24.432Z,16.57
2019-04-14T19:21:52.178Z,16.63
2019-04-14T19:24:20.005Z,15.23
2019-04-14T19:26:47.897Z,15.13
2019-04-14T19:29:15.608Z,17.47
2019-04-14T19:31:43.571Z,14.13
2019-04-14T19:34:11.248Z,13.67
2019-04-14T19:36:38.936Z,15.50
2019-04-14T19:39:09.018Z,14.73
2019-04-14T19:41:37.052Z,13.93
2019-04-14T19:44:04.743Z,13.80
2019-04-14T19:46:32.448Z,13.57
2019-04-14T19:49:00.142Z,13.73
2019-04-14T19:51:27.893Z,14.27
2019-04-14T19:53:55.672Z,12.90
2019-04-14T19:56:23.361Z,12.37
2019-04-14T19:58:51.082Z,12.47
2019-04-14T20:01:18.794Z,11.93
2019-04-14T20:03:46.550Z,12.80
2019-04-14T20:06:14.246Z,11.87
2019-04-14T20:08:41.994Z,13.30
2019-04-14T20:11:09.710Z,12.87
2019-04-14T20:13:40.746Z,12.53
2019-04-14T20:16:27.669Z,13.40
2019-04-14T20:19:12.040Z,11.63
2019-04-14T20:22:16.940Z,11.70
2019-04-14T20:25:02.571Z,11.90
2019-04-14T20:27:52.588Z,12.23
2019-04-14T20:30:33.382Z,11.23
2019-04-14T20:33:01.053Z,11.13
2019-04-14T20:35:28.780Z,12.03
2019-04-14T20:37:56.758Z,12.30
2019-04-14T20:40:24.411Z,11.27
2019-04-14T20:42:52.067Z,12.40
2019-04-14T20:45:19.758Z,13.03
2019-04-14T20:47:47.422Z,11.10
2019-04-14T20:50:15.238Z,10.00
2019-04-14T20:52:42.965Z,12.47
2019-04-14T20:55:10.620Z,13.57
2019-04-14T20:57:38.375Z,12.20
2019-04-14T21:00:06.980Z,11.83
2019-04-14T21:02:51.338Z,12.20
2019-04-14T21:05:38.714Z,12.50
2019-04-14T21:08:19.795Z,13.07
2019-04-14T21:10:54.482Z,12.03
2019-04-14T21:13:44.649Z,12.37
2019-04-14T21:16:22.812Z,12.27
2019-04-14T21:18:53.755Z,12.27
2019-04-14T21:21:43.481Z,11.37
2019-04-14T21:24:30.510Z,11.57
2019-04-14T21:27:12.742Z,14.30
2019-04-14T21:29:50.193Z,12.73
2019-04-14T21:32:27.514Z,13.30
2019-04-14T21:35:23.710Z,12.63
2019-04-14T21:38:17.769Z,11.90
2019-04-14T21:40:54.406Z,13.00
2019-04-14T21:43:22.218Z,11.87
2019-04-14T21:45:49.986Z,12.73
2019-04-14T21:48:17.777Z,12.80
2019-04-14T21:50:45.448Z,12.43
2019-04-14T21:53:13.116Z,11.87
2019-04-14T21:55:40.801Z,13.10
2019-04-14T21:58:20.054Z,12.07
2019-04-14T22:01:44.441Z,11.13
2019-04-14T22:04:49.540Z,11.27
2019-04-14T22:07:35.353Z,11.03
2019-04-14T22:10:22.918Z,11.73
2019-04-14T22:12:50.657Z,11.97
2019-04-14T22:15:18.316Z,12.80
2019-04-14T22:17:46.016Z,11.57
2019-04-14T22:20:13.810Z,12.27
2019-04-14T22:22:41.561Z,10.07
2019-04-14T22:25:10.386Z,11.03
2019-04-14T22:27:38.054Z,12.40
2019-04-14T22:30:07.046Z,15.00
2019-04-14T22:32:34.737Z,12.57
2019-04-14T22:35:02.439Z,13.13
2019-04-14T22:37:31.255Z,12.13
2019-04-14T22:39:59.095Z,10.40
2019-04-14T22:42:26.766Z,10.90
2019-04-14T22:44:54.409Z,10.17
2019-04-14T22:47:22.117Z,12.57
2019-04-14T22:49:49.759Z,10.67
2019-04-14T22:52:17.416Z,11.13
2019-04-14T22:54:45.082Z,10.50
2019-04-14T22:57:12.740Z,11.80
2019-04-14T22:59:40.408Z,11.83
2019-04-14T23:02:13.774Z,12.87
2019-04-14T23:04:59.605Z,12.10
2019-04-14T23:07:45.154Z,10.73
2019-04-14T23:10:22.084Z,10.93
2019-04-14T23:13:00.154Z,11.20
2019-04-14T23:15:45.940Z,10.83
2019-04-14T23:18:33.645Z,9.87
2019-04-14T23:21:32.736Z,10.07
2019-04-14T23:24:12.167Z,9.57
2019-04-14T23:26:51.853Z,9.30
2019-04-14T23:29:09.381Z,12.00
2019-04-14T23:31:37.124Z,9.47
2019-04-14T23:34:04.781Z,10.23
2019-04-14T23:36:32.508Z,9.17
2019-04-14T23:39:00.143Z,10.03
2019-04-14T23:41:27.797Z,10.03
2019-04-14T23:43:55.458Z,9.27
2019-04-14T23:46:23.121Z,9.30
2019-04-14T23:48:50.870Z,9.53
2019-04-14T23:51:18.584Z,9.73
2019-04-14T23:53:46.267Z,10.43
2019-04-14T23:56:13.931Z,10.00
2019-04-14T23:58:41.727Z,10.03
